Shenandoah, IA

8:04 PM CDT on September 19, 2014 (GMT -0500)
Nebraska City Municipal | Change Station
CLOSE
Current Station
Airport
Location: Nebraska City,
Elevation: 1161 ft
Nearby Weather Stations

Elev 1161 ft 40.61 °N, 95.86 °W | Updated 9 minutes ago

Clear
Clear
76 °F
Feels Like 76 °F
N
13
Wind Variable Wind from South
Gusts 19 mph

Today
High -- | Low -- °F
--% Chance of Precip.
Yesterday
High -- | Low -- °F
Precip. -- in
7:06 AM 7:23 PM
Waning Crescent, 16% visible
Pressure 29.85 in
Visibility 10.0 miles
Clouds
Dew Point 65 °F
Humidity 69%
Rainfall 0.00 in
Snow Depth Not available.
UV Not available.
Pollen 6.70 out of 12
Air Quality Not available.
Flu Activity Not available.
METAR KAFK 200055Z AUTO 18011KT 10SM 24/18 A2985 RMK AO2 T02430182

More Conditions Fewer Conditions

Pressure 29.85 in
Visibility 10.0 miles
Clouds
Dew Point 65 °F
Humidity 69%
Rainfall 0.00 in
Snow Depth Not available.
UV Not available.
Pollen 6.70 out of 12
Air Quality Not available.
Flu Activity Not available.
METAR KAFK 200055Z AUTO 18011KT 10SM 24/18 A2985 RMK AO2 T02430182

More Conditions Fewer Conditions

10-Day Weather Forecast

Almanac

Astronomy

Sep. 19, 2014 Rise Set
Actual Time 7:06 AM CDT 7:23 PM CDT
Civil Twilight 6:38 AM CDT 7:51 PM CDT
Nautical Twilight 6:06 AM CDT 8:23 PM CDT
Astronomical Twilight 5:33 AM CDT 8:55 PM CDT
Moon 2:50 AM CDT (9/19) 4:54 PM CDT (9/19)
Length of Visible Light 13h 12m
Length of Day
12h 17m
Tomorrow will be 2m 40s shorter.
Waning Crescent, 16% of the Moon is Illuminated
Today
Waning Crescent
Sep 24
New
Oct 1
First Quarter
Oct 8
Full
Oct 15
Last Quarter

Today's Extremes

State Highs State Lows

Community

WunderPhotos

Upload Photos

1,754,756 photos uploaded!

WunderBlogs® & News

Nearby

Snow Depth

Station Depth Elevation
No new snow has been reported.

Earthquake Activity

City Distance Mag. Time & Date
No recent earthquake activity has been reported nearby.
Minimum magnitude displayed is 2.5.

Coastal Water Temperatures

Place Temperature
No Stations Reporting

Nearby Weather Stations